createdAt,value
2022-11-17T00:02:23.657Z,98650.69
2022-11-17T00:04:50.242Z,98639.31
2022-11-17T00:07:16.892Z,98634.38
2022-11-17T00:09:43.585Z,98611.66
2022-11-17T00:12:10.094Z,98635.22
2022-11-17T00:14:38.468Z,98634.13
2022-11-17T00:17:07.015Z,98624.75
2022-11-17T00:19:33.749Z,98621.75
2022-11-17T00:22:00.335Z,98612.28
2022-11-17T00:24:27.148Z,98608.47
2022-11-17T00:26:53.637Z,98610.53
2022-11-17T00:29:20.339Z,98607.25
2022-11-17T00:31:48.203Z,98595.13
2022-11-17T00:34:17.679Z,98588.03
2022-11-17T00:36:46.007Z,98587.78
2022-11-17T00:39:13.894Z,98574.50
2022-11-17T00:41:40.892Z,98570.56
2022-11-17T00:44:08.391Z,98545.47
2022-11-17T00:46:36.015Z,98549.34
2022-11-17T00:49:04.661Z,98542.88
2022-11-17T00:51:31.563Z,98527.34
2022-11-17T00:53:58.085Z,98526.84
2022-11-17T00:56:24.937Z,98527.47
2022-11-17T00:58:51.964Z,98485.09
2022-11-17T01:01:18.983Z,98516.56
2022-11-17T01:03:45.778Z,98509.25
2022-11-17T01:06:16.540Z,98512.09
2022-11-17T01:08:43.357Z,98491.19
2022-11-17T01:11:11.858Z,98509.72
2022-11-17T01:13:40.146Z,98503.59
2022-11-17T01:16:08.603Z,98511.13
2022-11-17T01:18:35.914Z,98492.41
2022-11-17T01:21:08.013Z,98390.47
2022-11-17T01:23:37.358Z,98485.88
2022-11-17T01:26:05.714Z,98488.06
2022-11-17T01:28:32.535Z,98484.59
2022-11-17T01:31:00.531Z,98476.88
2022-11-17T01:33:27.082Z,98462.06
2022-11-17T01:35:53.585Z,98456.94
2022-11-17T01:38:20.176Z,98455.31
2022-11-17T01:40:48.021Z,98454.06
2022-11-17T01:43:14.527Z,98443.09
2022-11-17T01:45:41.286Z,98435.94
2022-11-17T01:48:09.660Z,98434.34
2022-11-17T01:50:38.657Z,98429.50
2022-11-17T01:53:08.996Z,98416.06
2022-11-17T01:55:38.549Z,98403.03
2022-11-17T01:58:10.503Z,98407.88
2022-11-17T02:00:37.173Z,98408.19
2022-11-17T02:03:04.591Z,98381.13
2022-11-17T02:05:39.465Z,98392.50
2022-11-17T02:08:06.784Z,98401.34
2022-11-17T02:10:35.194Z,98387.59
2022-11-17T02:13:02.247Z,98393.88
2022-11-17T02:15:30.186Z,98392.00
2022-11-17T02:17:58.080Z,98393.34
2022-11-17T02:20:37.851Z,98397.03
2022-11-17T02:23:39.552Z,98400.09
2022-11-17T02:26:20.869Z,98360.97
2022-11-17T02:28:57.426Z,98381.72
2022-11-17T02:31:42.319Z,98379.09
2022-11-17T02:34:18.760Z,98372.75
2022-11-17T02:37:22.647Z,98369.94
2022-11-17T02:39:56.207Z,98377.22
2022-11-17T02:42:30.493Z,98359.13
2022-11-17T02:45:02.423Z,98373.22
2022-11-17T02:47:32.811Z,98331.41
2022-11-17T02:50:01.772Z,98370.56
2022-11-17T02:52:29.933Z,98363.19
2022-11-17T02:54:59.561Z,98368.81
2022-11-17T02:57:29.944Z,98339.47
2022-11-17T03:00:01.324Z,98350.97
2022-11-17T03:02:49.917Z,98358.06
2022-11-17T03:05:22.879Z,98310.13
2022-11-17T03:08:06.860Z,98319.69
2022-11-17T03:10:45.169Z,98340.69
2022-11-17T03:13:18.805Z,98344.50
2022-11-17T03:15:53.760Z,98337.47
2022-11-17T03:18:27.593Z,98336.56
2022-11-17T03:21:05.162Z,98310.91
2022-11-17T03:23:38.358Z,98330.38
2022-11-17T03:26:10.951Z,98335.81
2022-11-17T03:28:39.181Z,98329.97
2022-11-17T03:31:07.954Z,98323.63
2022-11-17T03:33:37.313Z,98318.69
2022-11-17T03:36:06.896Z,98323.84
2022-11-17T03:38:37.600Z,98310.59
2022-11-17T03:41:07.090Z,98309.19
2022-11-17T03:43:34.393Z,98307.31
2022-11-17T03:46:05.681Z,98262.09
2022-11-17T03:48:37.819Z,98302.47
2022-11-17T03:51:08.104Z,98286.56
2022-11-17T03:53:36.052Z,98303.69
2022-11-17T03:56:11.411Z,98305.31
2022-11-17T03:58:46.445Z,98283.75
2022-11-17T04:01:14.608Z,98297.53
2022-11-17T04:03:42.519Z,98284.56
2022-11-17T04:06:09.120Z,98264.34
2022-11-17T04:08:35.703Z,98272.63
2022-11-17T04:11:02.266Z,98265.66
2022-11-17T04:13:28.778Z,98256.72
2022-11-17T04:15:55.711Z,98248.75
2022-11-17T04:18:23.135Z,98253.38
2022-11-17T04:20:52.936Z,98262.41
2022-11-17T04:23:20.015Z,98245.75
2022-11-17T04:25:48.151Z,98251.81
2022-11-17T04:28:14.808Z,98222.72
2022-11-17T04:30:41.390Z,98241.31
2022-11-17T04:33:07.871Z,98250.00
2022-11-17T04:35:34.495Z,98249.28
2022-11-17T04:38:02.507Z,98259.78
2022-11-17T04:40:29.045Z,98254.75
2022-11-17T04:42:55.536Z,98229.16
2022-11-17T04:45:22.048Z,98258.47
2022-11-17T04:47:48.527Z,98235.34
2022-11-17T04:50:15.665Z,98250.94
2022-11-17T04:52:42.176Z,98249.28
2022-11-17T04:55:10.261Z,98242.63
2022-11-17T04:57:36.769Z,98234.81
2022-11-17T05:00:04.021Z,98173.22
2022-11-17T05:02:30.555Z,98236.16
2022-11-17T05:04:57.110Z,98236.47
2022-11-17T05:07:23.683Z,98231.19
2022-11-17T05:09:50.188Z,98174.34
2022-11-17T05:12:18.032Z,98231.78
2022-11-17T05:14:45.245Z,98205.47
2022-11-17T05:17:12.102Z,98230.00
2022-11-17T05:19:39.916Z,98215.94
2022-11-17T05:22:07.696Z,98216.97
2022-11-17T05:24:34.175Z,98224.06
2022-11-17T05:27:00.683Z,98191.28
2022-11-17T05:29:28.570Z,98221.00
2022-11-17T05:31:55.092Z,98220.19
2022-11-17T05:34:21.618Z,98208.16
2022-11-17T05:36:48.132Z,98202.88
2022-11-17T05:39:14.690Z,98138.00
2022-11-17T05:41:41.225Z,98205.66
2022-11-17T05:44:07.764Z,98197.97
2022-11-17T05:46:35.722Z,98190.28
2022-11-17T05:49:02.584Z,98188.06
2022-11-17T05:51:29.263Z,98197.63
2022-11-17T05:53:55.780Z,98192.56
2022-11-17T05:56:33.817Z,98196.59
2022-11-17T05:59:06.556Z,98204.72
2022-11-17T06:01:36.552Z,98158.47
2022-11-17T06:04:05.338Z,98204.19
2022-11-17T06:06:34.703Z,98202.50
2022-11-17T06:09:01.298Z,98206.16
2022-11-17T06:11:27.801Z,98204.94
2022-11-17T06:13:54.312Z,98205.59
2022-11-17T06:16:26.030Z,98205.63
2022-11-17T06:18:56.552Z,98198.25
2022-11-17T06:21:23.127Z,98199.31
2022-11-17T06:23:50.385Z,98205.03
2022-11-17T06:26:17.059Z,98198.13
2022-11-17T06:28:46.467Z,98184.44
2022-11-17T06:31:14.144Z,98206.44
2022-11-17T06:33:41.006Z,98187.72
2022-11-17T06:36:09.574Z,98217.19
2022-11-17T06:38:36.223Z,98215.00
2022-11-17T06:41:07.402Z,98222.91
2022-11-17T06:43:37.466Z,98225.13
2022-11-17T06:46:04.983Z,98222.47
2022-11-17T06:48:32.187Z,98207.41
2022-11-17T06:50:58.770Z,98221.69
2022-11-17T06:53:26.705Z,98209.94
2022-11-17T06:55:53.714Z,98205.84
2022-11-17T06:58:20.305Z,98219.66
2022-11-17T07:00:46.863Z,98223.66
2022-11-17T07:03:13.478Z,98225.28
2022-11-17T07:05:40.542Z,98228.31
2022-11-17T07:08:08.803Z,98231.34
2022-11-17T07:10:38.090Z,98236.22
2022-11-17T07:13:04.707Z,98208.19
2022-11-17T07:15:31.733Z,98253.59
2022-11-17T07:17:58.319Z,98262.47
2022-11-17T07:20:24.960Z,98298.41
2022-11-17T07:22:51.508Z,98303.94
2022-11-17T07:25:22.292Z,98280.78
2022-11-17T07:27:57.439Z,98255.00
2022-11-17T07:30:24.015Z,98256.75
2022-11-17T07:32:54.488Z,98267.53
2022-11-17T07:35:21.494Z,98265.25
2022-11-17T07:37:47.987Z,98271.16
2022-11-17T07:40:15.222Z,98273.66
2022-11-17T07:42:41.743Z,98278.28
2022-11-17T07:45:10.333Z,98292.28
2022-11-17T07:47:36.828Z,98287.81
2022-11-17T07:50:03.645Z,98286.19
2022-11-17T07:52:31.068Z,98288.66
2022-11-17T07:54:57.630Z,98287.63
2022-11-17T07:57:24.258Z,98296.75
2022-11-17T07:59:50.854Z,98305.31
2022-11-17T08:02:18.714Z,98290.13
2022-11-17T08:04:45.352Z,98313.41
2022-11-17T08:07:11.895Z,98311.13
2022-11-17T08:09:38.555Z,98308.94
2022-11-17T08:12:05.480Z,98299.75
2022-11-17T08:14:32.115Z,98286.03
2022-11-17T08:16:58.610Z,98322.34
2022-11-17T08:19:26.546Z,98333.72
2022-11-17T08:21:53.312Z,98278.78
2022-11-17T08:24:19.891Z,98334.47
2022-11-17T08:26:46.398Z,98335.53
2022-11-17T08:29:12.993Z,98336.59
2022-11-17T08:31:39.642Z,98339.03
2022-11-17T08:34:06.278Z,98346.38
2022-11-17T08:36:34.121Z,98338.91
2022-11-17T08:39:00.898Z,98339.50
2022-11-17T08:41:27.469Z,98309.72
2022-11-17T08:43:54.081Z,98346.06
2022-11-17T08:46:20.658Z,98345.66
2022-11-17T08:48:48.959Z,98327.88
2022-11-17T08:51:18.928Z,98352.19
2022-11-17T08:53:46.788Z,98354.25
2022-11-17T08:56:13.448Z,98351.84
2022-11-17T08:58:40.119Z,98307.44
2022-11-17T09:01:08.135Z,98361.84
2022-11-17T09:03:34.664Z,98353.97
2022-11-17T09:06:01.310Z,98363.75
2022-11-17T09:08:45.104Z,98357.50
2022-11-17T09:11:15.306Z,98351.19
2022-11-17T09:13:42.029Z,98369.34
2022-11-17T09:16:10.808Z,98365.91
2022-11-17T09:18:38.794Z,98377.56
2022-11-17T09:21:08.075Z,98371.72
2022-11-17T09:23:35.225Z,98364.53
2022-11-17T09:26:05.381Z,98373.09
2022-11-17T09:28:33.459Z,98368.38
2022-11-17T09:31:06.181Z,98364.16
2022-11-17T09:33:32.763Z,98382.09
2022-11-17T09:35:59.302Z,98387.81
2022-11-17T09:38:25.908Z,98390.44
2022-11-17T09:40:52.512Z,98392.78
2022-11-17T09:43:26.899Z,98395.09
2022-11-17T09:46:04.480Z,98406.47
2022-11-17T09:48:51.214Z,98373.59
2022-11-17T09:51:21.816Z,98413.22
2022-11-17T09:53:54.004Z,98422.19
2022-11-17T09:56:21.524Z,98406.13
2022-11-17T09:58:53.380Z,98430.53
2022-11-17T10:01:23.055Z,98427.75
2022-11-17T10:03:50.885Z,98428.19
2022-11-17T10:06:19.892Z,98429.00
2022-11-17T10:08:54.598Z,98433.22
2022-11-17T10:11:21.192Z,98438.09
2022-11-17T10:13:47.896Z,98440.53
2022-11-17T10:16:14.518Z,98346.81
2022-11-17T10:18:42.368Z,98448.47
2022-11-17T10:21:09.030Z,98440.34
2022-11-17T10:23:44.390Z,98447.47
2022-11-17T10:26:15.806Z,98434.66
2022-11-17T10:28:42.719Z,98452.44
2022-11-17T10:31:12.912Z,98437.16
2022-11-17T10:33:43.506Z,98459.19
2022-11-17T10:36:18.711Z,98467.78
2022-11-17T10:38:46.649Z,98440.66
2022-11-17T10:41:16.625Z,98459.03
2022-11-17T10:43:55.714Z,98441.09
2022-11-17T10:46:22.340Z,98451.53
2022-11-17T10:48:56.522Z,98463.72
2022-11-17T10:51:25.080Z,98301.03
2022-11-17T10:54:02.263Z,98447.66
2022-11-17T10:56:30.490Z,98453.97
2022-11-17T10:59:02.343Z,98412.13
2022-11-17T11:01:31.395Z,98448.88
2022-11-17T11:03:59.453Z,98452.13
2022-11-17T11:06:27.916Z,98459.88
2022-11-17T11:08:58.242Z,98450.28
2022-11-17T11:11:43.495Z,98474.16
2022-11-17T11:14:19.039Z,98474.97
2022-11-17T11:16:48.507Z,98470.28
2022-11-17T11:19:18.113Z,98460.28
2022-11-17T11:22:20.787Z,98472.09
2022-11-17T11:24:54.749Z,98473.56
2022-11-17T11:27:37.581Z,98459.28
2022-11-17T11:30:08.944Z,98472.31
2022-11-17T11:32:46.405Z,98479.84
2022-11-17T11:35:44.367Z,98480.69
2022-11-17T11:38:29.391Z,98477.63
2022-11-17T11:41:10.581Z,98482.72
2022-11-17T11:43:44.462Z,98488.44
2022-11-17T11:46:17.224Z,98453.34
2022-11-17T11:48:46.921Z,98488.84
2022-11-17T11:51:19.077Z,98485.00
2022-11-17T11:53:51.819Z,98498.03
2022-11-17T11:56:24.729Z,98498.84
2022-11-17T11:58:59.053Z,98470.13
2022-11-17T12:01:28.567Z,98491.75
2022-11-17T12:04:05.951Z,98473.16
2022-11-17T12:06:41.756Z,98472.78
2022-11-17T12:09:34.708Z,98497.25
2022-11-17T12:12:08.300Z,98490.13
2022-11-17T12:14:36.632Z,98495.41
2022-11-17T12:17:06.800Z,98485.25
2022-11-17T12:19:54.869Z,98448.94
2022-11-17T12:22:47.494Z,98497.44
2022-11-17T12:25:18.210Z,98498.28
2022-11-17T12:27:47.717Z,98501.16
2022-11-17T12:30:50.507Z,98505.88
2022-11-17T12:33:17.079Z,98491.56
2022-11-17T12:35:43.606Z,98495.28
2022-11-17T12:38:39.602Z,98497.72
2022-11-17T12:41:06.198Z,98512.56
2022-11-17T12:43:32.727Z,98511.16
2022-11-17T12:46:11.393Z,98508.91
2022-11-17T12:48:39.445Z,98500.56
2022-11-17T12:51:15.124Z,98506.22
2022-11-17T12:53:56.123Z,98489.31
2022-11-17T12:56:38.098Z,98475.03
2022-11-17T12:59:26.007Z,98504.44
2022-11-17T13:01:59.188Z,98505.88
2022-11-17T13:04:34.755Z,98515.06
2022-11-17T13:07:02.993Z,98506.88
2022-11-17T13:09:32.636Z,98509.94
2022-11-17T13:12:00.585Z,98491.56
2022-11-17T13:14:27.246Z,98498.25
2022-11-17T13:16:53.872Z,98505.97
2022-11-17T13:19:33.213Z,98517.78
2022-11-17T13:22:01.475Z,98507.31
2022-11-17T13:24:32.411Z,98509.94
2022-11-17T13:27:00.334Z,98486.22
2022-11-17T13:29:26.874Z,98502.63
2022-11-17T13:32:12.414Z,98506.22
2022-11-17T13:34:45.901Z,98511.19
2022-11-17T13:37:16.633Z,98520.06
2022-11-17T13:39:59.585Z,98517.59
2022-11-17T13:42:29.763Z,98539.16
2022-11-17T13:44:58.784Z,98528.25
2022-11-17T13:47:41.802Z,98521.78
2022-11-17T13:50:22.297Z,98527.28
2022-11-17T13:52:54.291Z,98519.03
2022-11-17T13:55:23.741Z,98519.78
2022-11-17T13:57:55.677Z,98522.28
2022-11-17T14:00:22.719Z,98531.13
2022-11-17T14:02:52.818Z,98530.50
2022-11-17T14:05:22.620Z,98522.09
2022-11-17T14:07:49.890Z,98524.31
2022-11-17T14:10:29.383Z,98527.03
2022-11-17T14:13:19.120Z,98535.56
2022-11-17T14:15:53.658Z,98512.19
2022-11-17T14:18:35.728Z,98520.94
2022-11-17T14:21:05.712Z,98528.56
2022-11-17T14:23:32.214Z,98532.47
2022-11-17T14:26:00.101Z,98532.69
2022-11-17T14:28:26.680Z,98529.66
2022-11-17T14:30:54.735Z,98528.88
2022-11-17T14:33:21.912Z,98525.84
2022-11-17T14:35:52.317Z,98516.47
2022-11-17T14:38:21.819Z,98551.56
2022-11-17T14:40:49.568Z,98527.50
2022-11-17T14:43:17.712Z,98537.88
2022-11-17T14:45:44.403Z,98517.69
2022-11-17T14:48:18.705Z,98514.22
2022-11-17T14:50:45.855Z,98548.88
2022-11-17T14:53:12.363Z,98552.34
2022-11-17T14:55:38.946Z,98551.53
2022-11-17T14:58:05.482Z,98530.13
2022-11-17T15:00:33.423Z,98551.75
2022-11-17T15:02:59.954Z,98559.50
2022-11-17T15:05:26.601Z,98553.00
2022-11-17T15:07:53.097Z,98559.50
2022-11-17T15:10:19.885Z,98566.63
2022-11-17T15:12:46.446Z,98561.94
2022-11-17T15:15:13.168Z,98546.44
2022-11-17T15:17:41.079Z,98576.84
2022-11-17T15:20:08.905Z,98577.22
2022-11-17T15:22:35.565Z,98556.38
2022-11-17T15:25:02.163Z,98572.47
2022-11-17T15:27:28.705Z,98584.13
2022-11-17T15:29:55.264Z,98559.38
2022-11-17T15:32:21.801Z,98594.69
2022-11-17T15:34:49.888Z,98579.34
2022-11-17T15:37:16.432Z,98440.50
2022-11-17T15:39:45.988Z,98573.72
2022-11-17T15:42:12.813Z,98579.22
2022-11-17T15:44:39.391Z,98594.09
2022-11-17T15:47:05.964Z,98601.44
2022-11-17T15:49:32.517Z,98597.31
2022-11-17T15:52:00.375Z,98598.91
2022-11-17T15:54:26.939Z,98593.00
2022-11-17T15:56:53.522Z,98599.44
2022-11-17T15:59:20.482Z,98607.16
2022-11-17T16:01:47.516Z,98587.53
2022-11-17T16:04:15.264Z,98599.56
2022-11-17T16:06:44.101Z,98561.13
2022-11-17T16:09:13.404Z,98588.69
2022-11-17T16:11:40.682Z,98579.59
2022-11-17T16:14:07.429Z,98611.25
2022-11-17T16:16:35.766Z,98591.75
2022-11-17T16:19:02.707Z,98614.41
2022-11-17T16:21:29.304Z,98619.59
2022-11-17T16:23:57.412Z,98623.34
2022-11-17T16:26:27.002Z,98547.88
2022-11-17T16:28:56.340Z,98626.94
2022-11-17T16:31:24.757Z,98550.75
2022-11-17T16:33:53.247Z,98639.56
2022-11-17T16:36:22.453Z,98592.72
2022-11-17T16:39:00.436Z,98637.75
2022-11-17T16:41:32.615Z,98629.97
2022-11-17T16:43:59.647Z,98642.81
2022-11-17T16:46:27.903Z,98632.91
2022-11-17T16:48:55.208Z,98640.00
2022-11-17T16:51:22.404Z,98639.56
2022-11-17T16:53:55.425Z,98634.22
2022-11-17T16:56:22.458Z,98648.31
2022-11-17T16:58:50.939Z,98622.03
2022-11-17T17:01:19.955Z,98652.41
2022-11-17T17:03:46.498Z,98646.06
2022-11-17T17:06:15.309Z,98649.22
2022-11-17T17:08:41.913Z,98656.34
2022-11-17T17:11:10.192Z,98622.28
2022-11-17T17:13:37.279Z,98651.69
2022-11-17T17:16:07.736Z,98617.16
2022-11-17T17:18:34.882Z,98620.44
2022-11-17T17:21:01.949Z,98658.03
2022-11-17T17:23:28.860Z,98609.03
2022-11-17T17:26:03.275Z,98666.66
2022-11-17T17:28:31.377Z,98668.59
2022-11-17T17:30:57.969Z,98662.66
2022-11-17T17:33:25.968Z,98661.50
2022-11-17T17:35:52.591Z,98655.66
2022-11-17T17:38:19.217Z,98659.16
2022-11-17T17:40:45.754Z,98662.34
2022-11-17T17:43:12.360Z,98649.13
2022-11-17T17:45:38.930Z,98659.94
2022-11-17T17:48:05.891Z,98587.50
2022-11-17T17:50:33.802Z,98666.59
2022-11-17T17:53:00.537Z,98672.69
2022-11-17T17:55:27.194Z,98675.31
2022-11-17T17:57:53.823Z,98686.38
2022-11-17T18:00:20.742Z,98636.75
2022-11-17T18:02:47.356Z,98689.19
2022-11-17T18:05:14.001Z,98667.50
2022-11-17T18:07:42.051Z,98698.22
2022-11-17T18:10:09.173Z,98697.38
2022-11-17T18:12:35.826Z,98706.28
2022-11-17T18:15:02.370Z,98705.47
2022-11-17T18:17:29.039Z,98701.19
2022-11-17T18:19:55.607Z,98685.63
2022-11-17T18:22:22.205Z,98715.84
2022-11-17T18:24:50.070Z,98701.72
2022-11-17T18:27:16.773Z,98723.22
2022-11-17T18:29:43.324Z,98715.97
2022-11-17T18:32:09.984Z,98712.13
2022-11-17T18:34:36.589Z,98709.75
2022-11-17T18:37:03.944Z,98726.66
2022-11-17T18:39:30.499Z,98720.41
2022-11-17T18:41:58.454Z,98720.41
2022-11-17T18:44:25.005Z,98724.69
2022-11-17T18:46:51.669Z,98726.66
2022-11-17T18:49:18.606Z,98727.84
2022-11-17T18:51:45.670Z,98708.34
2022-11-17T18:54:12.297Z,98732.13
2022-11-17T18:56:39.223Z,98682.88
2022-11-17T18:59:07.571Z,98701.59
2022-11-17T19:01:34.282Z,98724.84
2022-11-17T19:04:00.857Z,98719.59
2022-11-17T19:06:27.885Z,98676.31
2022-11-17T19:08:54.665Z,98722.69
2022-11-17T19:11:22.943Z,98729.81
2022-11-17T19:13:49.911Z,98715.59
2022-11-17T19:16:20.494Z,98727.44
2022-11-17T19:18:48.805Z,98733.06
2022-11-17T19:21:16.952Z,98723.56
2022-11-17T19:23:50.784Z,98738.69
2022-11-17T19:26:20.211Z,98720.38
2022-11-17T19:28:46.883Z,98740.97
2022-11-17T19:31:17.385Z,98724.06
2022-11-17T19:33:46.870Z,98748.22
2022-11-17T19:36:15.593Z,98754.00
2022-11-17T19:38:42.378Z,98709.06
2022-11-17T19:41:10.575Z,98763.28
2022-11-17T19:43:43.413Z,98768.03
2022-11-17T19:46:13.404Z,98758.38
2022-11-17T19:48:40.793Z,98765.63
2022-11-17T19:51:17.629Z,98777.28
2022-11-17T19:53:44.353Z,98759.56
2022-11-17T19:56:11.060Z,98720.00
2022-11-17T19:58:37.972Z,98787.69
2022-11-17T20:01:09.158Z,98796.22
2022-11-17T20:03:36.765Z,98768.97
2022-11-17T20:06:03.994Z,98779.66
2022-11-17T20:08:32.308Z,98794.44
2022-11-17T20:11:03.483Z,98792.66
2022-11-17T20:13:30.282Z,98790.66
2022-11-17T20:15:57.118Z,98798.72
2022-11-17T20:18:23.800Z,98791.16
2022-11-17T20:20:50.615Z,98803.78
2022-11-17T20:23:17.215Z,98810.84
2022-11-17T20:25:45.453Z,98803.78
2022-11-17T20:28:12.112Z,98816.09
2022-11-17T20:30:38.956Z,98824.31
2022-11-17T20:33:06.193Z,98824.47
2022-11-17T20:35:32.906Z,98822.69
2022-11-17T20:37:59.568Z,98832.22
2022-11-17T20:40:26.065Z,98826.78
2022-11-17T20:42:54.409Z,98812.97
2022-11-17T20:45:21.047Z,98831.56
2022-11-17T20:47:47.692Z,98761.69
2022-11-17T20:50:14.328Z,98841.56
2022-11-17T20:52:40.933Z,98846.53
2022-11-17T20:55:08.332Z,98847.16
2022-11-17T20:57:34.978Z,98849.31
2022-11-17T21:00:03.221Z,98850.00
2022-11-17T21:02:29.785Z,98832.53
2022-11-17T21:04:56.313Z,98783.25
2022-11-17T21:07:22.989Z,98862.81
2022-11-17T21:09:49.619Z,98862.00
2022-11-17T21:12:16.202Z,98839.16
2022-11-17T21:14:42.752Z,98872.34
2022-11-17T21:17:10.863Z,98859.84
2022-11-17T21:19:39.172Z,98873.81
2022-11-17T21:22:05.913Z,98826.28
2022-11-17T21:24:32.425Z,98871.38
2022-11-17T21:26:59.154Z,98872.22
2022-11-17T21:29:25.677Z,98874.66
2022-11-17T21:31:52.201Z,98876.47
2022-11-17T21:34:20.158Z,98872.84
2022-11-17T21:36:46.743Z,98851.66
2022-11-17T21:39:13.338Z,98873.69
2022-11-17T21:41:40.142Z,98877.78
2022-11-17T21:44:06.672Z,98885.34
2022-11-17T21:46:34.191Z,98885.84
2022-11-17T21:49:01.282Z,98887.34
2022-11-17T21:51:30.745Z,98882.88
2022-11-17T21:53:59.169Z,98893.72
2022-11-17T21:56:27.105Z,98895.88
2022-11-17T21:58:54.496Z,98898.31
2022-11-17T22:01:21.244Z,98885.84
2022-11-17T22:03:47.806Z,98894.22
2022-11-17T22:06:16.018Z,98870.81
2022-11-17T22:08:44.825Z,98876.38
2022-11-17T22:11:12.877Z,98895.28
2022-11-17T22:13:40.145Z,98900.88
2022-11-17T22:16:09.622Z,98883.28
2022-11-17T22:18:36.291Z,98881.16
2022-11-17T22:21:03.517Z,98897.59
2022-11-17T22:23:30.471Z,98898.22
2022-11-17T22:26:00.424Z,98873.53
2022-11-17T22:28:27.413Z,98903.47
2022-11-17T22:30:54.461Z,98908.22
2022-11-17T22:33:22.116Z,98915.09
2022-11-17T22:35:48.931Z,98917.22
2022-11-17T22:38:16.007Z,98914.69
2022-11-17T22:40:43.161Z,98923.75
2022-11-17T22:43:15.273Z,98906.09
2022-11-17T22:45:42.459Z,98919.75
2022-11-17T22:48:09.441Z,98865.75
2022-11-17T22:50:36.460Z,98926.28
2022-11-17T22:53:03.091Z,98876.19
2022-11-17T22:55:30.320Z,98929.03
2022-11-17T22:57:56.843Z,98912.66
2022-11-17T23:00:24.813Z,98941.97
2022-11-17T23:02:51.371Z,98932.91
2022-11-17T23:05:18.316Z,98889.88
2022-11-17T23:07:44.929Z,98879.63
2022-11-17T23:10:12.033Z,98947.94
2022-11-17T23:12:40.483Z,98952.16
2022-11-17T23:15:08.531Z,98948.19
2022-11-17T23:17:36.501Z,98956.66
2022-11-17T23:20:03.452Z,98950.22
2022-11-17T23:22:29.986Z,98955.66
2022-11-17T23:24:56.592Z,98930.25
2022-11-17T23:27:23.146Z,98935.66
2022-11-17T23:29:49.715Z,98961.50
2022-11-17T23:32:16.230Z,98959.31
2022-11-17T23:34:44.168Z,98955.72
2022-11-17T23:37:10.901Z,98955.72
2022-11-17T23:39:37.776Z,98950.47
2022-11-17T23:42:05.048Z,98960.69
2022-11-17T23:44:31.689Z,98961.19
2022-11-17T23:46:58.262Z,98952.13
2022-11-17T23:49:25.218Z,98931.53
2022-11-17T23:51:53.077Z,98957.59
2022-11-17T23:54:19.751Z,98927.09
2022-11-17T23:56:46.303Z,98967.78
2022-11-17T23:59:12.988Z,98944.53
